TimeCST,TemperatureF,Dew PointF,Humidity,Sea Level PressureIn,VisibilityMPH,Wind Direction,Wind SpeedMPH,Gust SpeedMPH,PrecipitationIn,Events,Conditions,WindDirDegrees,DateUTC
12:42 AM,55.4,55.4,100,30.05,2.5,NE,8.1,-,0.00,Rain,Light Rain,40,2013-01-09 06:42:00
12:53 AM,55.9,55.0,97,30.05,2.5,NE,9.2,-,0.01,Rain,Light Rain,40,2013-01-09 06:53:00
1:06 AM,55.4,55.4,100,30.06,3.0,NE,6.9,-,0.00,Rain,Light Rain,50,2013-01-09 07:06:00
1:20 AM,55.4,55.4,100,30.05,2.5,NE,9.2,-,0.01,Rain,Rain,40,2013-01-09 07:20:00
1:37 AM,55.4,53.6,94,30.05,3.0,NE,8.1,-,0.02,Rain,Light Rain,50,2013-01-09 07:37:00
1:53 AM,55.9,54.0,93,30.05,3.0,NE,6.9,-,0.02,Rain,Light Rain,50,2013-01-09 07:53:00
2:53 AM,55.0,54.0,96,30.06,6.0,North,9.2,-,0.04,,Overcast,10,2013-01-09 08:53:00
3:53 AM,54.0,53.1,97,30.08,5.0,NE,8.1,-,0.07,Rain,Rain,40,2013-01-09 09:53:00
4:53 AM,55.0,53.1,93,30.06,6.0,NE,10.4,-,0.14,Rain,Heavy Rain,40,2013-01-09 10:53:00
5:53 AM,54.0,53.1,97,30.06,6.0,NE,10.4,-,0.14,Rain,Heavy Rain,50,2013-01-09 11:53:00
6:53 AM,54.0,53.1,97,30.07,5.0,ENE,12.7,-,0.31,Rain,Heavy Rain,60,2013-01-09 12:53:00
7:53 AM,55.0,53.1,93,30.08,9.0,ENE,12.7,-,0.28,Rain,Rain,60,2013-01-09 13:53:00
8:07 AM,55.4,53.6,94,30.09,10.0,ENE,15.0,-,0.01,Rain,Light Rain,60,2013-01-09 14:07:00
8:53 AM,55.9,54.0,93,30.11,6.0,ENE,13.8,-,0.04,Rain,Rain,60,2013-01-09 14:53:00
9:53 AM,55.9,54.0,93,30.13,9.0,ENE,13.8,-,0.06,Rain,Light Rain,70,2013-01-09 15:53:00
10:53 AM,57.0,55.0,93,30.11,10.0,ENE,12.7,-,0.01,,Overcast,70,2013-01-09 16:53:00
11:07 AM,57.2,55.4,94,30.11,10.0,ENE,11.5,-,0.00,Rain,Light Rain,70,2013-01-09 17:07:00
11:53 AM,57.0,55.0,93,30.09,10.0,ENE,9.2,-,0.04,Rain,Light Rain,70,2013-01-09 17:53:00
12:53 PM,57.0,55.0,93,30.07,6.0,ENE,12.7,-,0.04,Rain,Light Rain,60,2013-01-09 18:53:00
1:53 PM,57.0,55.9,96,30.06,6.0,ENE,10.4,-,0.13,Rain,Light Rain,60,2013-01-09 19:53:00
2:53 PM,57.0,55.0,93,30.06,10.0,ENE,13.8,-,0.03,Rain,Light Rain,60,2013-01-09 20:53:00
3:53 PM,57.0,55.0,93,30.06,10.0,ENE,13.8,-,0.02,Rain,Light Rain,70,2013-01-09 21:53:00
4:32 PM,57.2,55.4,94,30.07,10.0,ENE,12.7,-,0.02,Rain,Light Rain,70,2013-01-09 22:32:00
4:44 PM,57.2,55.4,94,30.07,10.0,ENE,16.1,21.9,0.04,Rain-Thunderstorm,Light Rain,70,2013-01-09 22:44:00
4:53 PM,57.0,55.0,93,30.06,10.0,ENE,12.7,21.9,0.06,Rain,Rain,70,2013-01-09 22:53:00
5:53 PM,57.0,55.0,93,30.06,10.0,ENE,10.4,-,0.08,Rain,Light Rain,70,2013-01-09 23:53:00
6:53 PM,57.0,55.0,93,30.03,10.0,ENE,16.1,24.2,0.02,,Overcast,60,2013-01-10 00:53:00
7:53 PM,57.9,55.9,93,30.07,10.0,East,11.5,-,N/A,,Overcast,90,2013-01-10 01:53:00
8:53 PM,57.9,55.9,93,30.00,5.0,East,15.0,23.0,N/A,,Overcast,80,2013-01-10 02:53:00
9:31 PM,57.2,55.4,94,30.02,2.5,East,13.8,21.9,N/A,,Overcast,80,2013-01-10 03:31:00
9:53 PM,57.9,57.0,97,30.04,1.8,East,8.1,20.7,N/A,,Overcast,80,2013-01-10 03:53:00
10:53 PM,57.9,57.0,97,30.04,1.2,East,5.8,-,0.00,Rain,Light Rain,80,2013-01-10 04:53:00
11:08 PM,57.2,57.2,100,30.05,3.0,East,5.8,-,0.00,Rain,Light Rain,80,2013-01-10 05:08:00
11:53 PM,57.9,57.9,100,30.05,3.0,ENE,4.6,-,0.01,Rain,Light Rain,70,2013-01-10 05:53:00